YPNC weather

Pine Creek Airport
Northern Territory, Australia

Public forecast

Using degrees Celsius for public forecast. Weather courtesy of forecast.io.

METAR (pilot weather report)

Closest report is Tindal Airport, 52.1 nm (96.4 km) SE. Retrieved 2019/05/27 06:30 UTC (19 minutes ago):

YPTN 270630Z AUTO 13013KT 9999 // NCD 32/08 Q1012

TAF (pilot weather forecast)

Closest forecast is Tindal Airport, 52.1 nm (96.4 km) SE. Retrieved 2019/05/27 06:39 UTC (10 minutes ago):

TAF YPTN 270528Z 2706/2806 12012KT CAVOK FM270900 12005KT CAVOK FM280000 12015G25KT CAVOK FM280400 12012KT CAVOK RMK FROM 272100 MOD TURB BLW 5000FT TL280200 T 32 28 22 20 Q 1012 1012 1014 1015